createdAt,value
2018-01-29T00:02:16.709Z,99292.72
2018-01-29T00:04:45.044Z,99296.62
2018-01-29T00:07:13.379Z,99297.41
2018-01-29T00:09:41.702Z,99291.99
2018-01-29T00:12:10.032Z,99282.52
2018-01-29T00:14:38.358Z,99291.41
2018-01-29T00:17:06.688Z,99285.39
2018-01-29T00:19:35.003Z,99291.61
2018-01-29T00:22:03.337Z,99286.00
2018-01-29T00:24:32.437Z,99292.66
2018-01-29T00:27:00.763Z,99289.80
2018-01-29T00:29:30.264Z,99291.91
2018-01-29T00:31:58.589Z,99290.34
2018-01-29T00:34:26.938Z,99289.23
2018-01-29T00:36:55.280Z,99287.16
2018-01-29T00:39:23.595Z,99289.58
2018-01-29T00:41:51.924Z,99292.84
2018-01-29T00:44:20.251Z,99294.98
2018-01-29T00:46:49.344Z,99286.11
2018-01-29T00:49:17.686Z,99293.00
2018-01-29T00:51:46.020Z,99290.39
2018-01-29T00:54:14.343Z,99288.98
2018-01-29T00:56:42.667Z,99287.64
2018-01-29T00:59:10.989Z,99292.16
2018-01-29T01:01:39.298Z,99282.40
2018-01-29T01:04:07.626Z,99285.02
2018-01-29T01:06:35.941Z,99281.67
2018-01-29T01:09:04.272Z,99282.05
2018-01-29T01:11:32.601Z,99286.48
2018-01-29T01:14:00.934Z,99281.75
2018-01-29T01:16:29.260Z,99287.41
2018-01-29T01:18:57.588Z,99285.16
2018-01-29T01:21:25.916Z,99282.44
2018-01-29T01:23:54.237Z,99284.73
2018-01-29T01:26:22.576Z,99280.84
2018-01-29T01:28:50.923Z,99282.11
2018-01-29T01:31:19.244Z,99274.75
2018-01-29T01:33:47.632Z,99276.37
2018-01-29T01:36:15.927Z,99281.01
2018-01-29T01:38:44.264Z,99277.91
2018-01-29T01:41:13.372Z,99273.27
2018-01-29T01:43:41.717Z,99277.78
2018-01-29T01:46:10.046Z,99273.52
2018-01-29T01:48:38.362Z,99269.02
2018-01-29T01:51:06.705Z,99255.83
2018-01-29T01:53:35.022Z,99250.83
2018-01-29T01:56:03.350Z,99244.91
2018-01-29T01:58:32.055Z,99241.86
2018-01-29T02:01:00.400Z,99235.28
2018-01-29T02:03:28.736Z,99229.02
2018-01-29T02:05:57.064Z,99229.17
2018-01-29T02:08:25.392Z,99225.78
2018-01-29T02:10:53.717Z,99218.03
2018-01-29T02:13:22.044Z,99214.87
2018-01-29T02:15:51.923Z,99213.59
2018-01-29T02:18:20.235Z,99207.94
2018-01-29T02:20:48.571Z,99199.75
2018-01-29T02:23:17.512Z,99191.09
2018-01-29T02:25:45.847Z,99180.31
2018-01-29T02:28:14.185Z,99191.97
2018-01-29T02:30:42.517Z,99188.05
2018-01-29T02:33:10.856Z,99182.58
2018-01-29T02:35:39.175Z,99178.80
2018-01-29T02:38:07.503Z,99178.31
2018-01-29T02:40:36.636Z,99188.13
2018-01-29T02:43:04.950Z,99186.97
2018-01-29T02:45:33.266Z,99177.44
2018-01-29T02:48:02.358Z,99172.27
2018-01-29T02:50:31.477Z,99158.98
2018-01-29T02:52:59.791Z,99160.70
2018-01-29T02:55:28.117Z,99156.05
2018-01-29T02:57:56.425Z,99160.76
2018-01-29T03:00:24.744Z,99149.07
2018-01-29T03:02:53.146Z,99147.89
2018-01-29T03:05:22.486Z,99152.05
2018-01-29T03:07:50.801Z,99147.19
2018-01-29T03:10:19.124Z,99145.47
2018-01-29T03:12:47.438Z,99153.69
2018-01-29T03:15:15.754Z,99160.09
2018-01-29T03:17:44.075Z,99158.64
2018-01-29T03:20:12.409Z,99154.61
2018-01-29T03:22:40.725Z,99153.02
2018-01-29T03:25:09.056Z,99162.82
2018-01-29T03:27:37.382Z,99149.23
2018-01-29T03:30:05.782Z,99146.13
2018-01-29T03:32:34.116Z,99157.66
2018-01-29T03:35:02.442Z,99145.59
2018-01-29T03:37:30.819Z,99131.22
2018-01-29T03:39:59.136Z,99136.80
2018-01-29T03:42:27.476Z,99131.15
2018-01-29T03:44:55.804Z,99122.52
2018-01-29T03:47:24.127Z,99126.95
2018-01-29T03:49:52.465Z,99123.96
2018-01-29T03:52:20.779Z,99114.20
2018-01-29T03:54:49.099Z,99109.99
2018-01-29T03:57:17.410Z,99108.72
2018-01-29T03:59:45.729Z,99112.77
2018-01-29T04:02:14.058Z,99121.41
2018-01-29T04:04:42.395Z,99125.42
2018-01-29T04:07:10.710Z,99129.12
2018-01-29T04:09:39.039Z,99120.16
2018-01-29T04:12:07.358Z,99125.66
2018-01-29T04:14:35.674Z,99115.05
2018-01-29T04:17:04.008Z,99117.45
2018-01-29T04:19:32.317Z,99112.23
2018-01-29T04:22:00.611Z,99104.88
2018-01-29T04:24:28.939Z,99091.59
2018-01-29T04:26:57.235Z,99089.04
2018-01-29T04:29:25.895Z,99091.68
2018-01-29T04:31:54.220Z,99069.63
2018-01-29T04:34:22.526Z,99078.70
2018-01-29T04:36:51.599Z,99083.58
2018-01-29T04:39:19.929Z,99078.09
2018-01-29T04:41:48.253Z,99074.32
2018-01-29T04:44:16.776Z,99079.23
2018-01-29T04:46:45.290Z,99066.20
2018-01-29T04:49:13.628Z,99073.17
2018-01-29T04:51:41.962Z,99066.22
2018-01-29T04:54:10.282Z,99071.00
2018-01-29T04:56:39.296Z,99063.75
2018-01-29T04:59:07.624Z,99062.55
2018-01-29T05:01:35.934Z,99065.05
2018-01-29T05:04:04.247Z,99065.95
2018-01-29T05:06:32.573Z,99069.57
2018-01-29T05:09:00.901Z,99066.09
2018-01-29T05:11:29.469Z,99063.13
2018-01-29T05:13:57.818Z,99068.55
2018-01-29T05:16:26.915Z,99059.27
2018-01-29T05:18:55.252Z,99080.33
2018-01-29T05:21:23.698Z,99069.20
2018-01-29T05:23:52.018Z,99072.19
2018-01-29T05:26:20.352Z,99072.13
2018-01-29T05:28:48.688Z,99062.97
2018-01-29T05:31:17.790Z,99063.29
2018-01-29T05:33:46.102Z,99064.45
2018-01-29T05:36:17.296Z,99067.02
2018-01-29T05:38:49.655Z,99062.20
2018-01-29T05:41:17.975Z,99062.38
2018-01-29T05:43:46.287Z,99069.52
2018-01-29T05:46:14.610Z,99067.11
2018-01-29T05:48:42.936Z,99058.75
2018-01-29T05:51:11.276Z,99054.80
2018-01-29T05:53:39.584Z,99049.27
2018-01-29T05:56:07.903Z,99035.56
2018-01-29T05:58:36.236Z,99041.47
2018-01-29T06:01:04.581Z,99041.54
2018-01-29T06:03:32.908Z,99045.85
2018-01-29T06:06:01.226Z,99052.08
2018-01-29T06:08:29.576Z,99041.48
2018-01-29T06:10:57.891Z,99040.20
2018-01-29T06:13:26.983Z,99041.05
2018-01-29T06:15:57.227Z,99038.81
2018-01-29T06:18:25.538Z,99038.07
2018-01-29T06:20:53.854Z,99042.86
2018-01-29T06:23:22.943Z,99037.16
2018-01-29T06:25:51.259Z,99042.80
2018-01-29T06:28:19.570Z,99042.27
2018-01-29T06:30:47.896Z,99043.70
2018-01-29T06:33:16.231Z,99039.03
2018-01-29T06:35:44.572Z,99046.27
2018-01-29T06:38:12.896Z,99045.48
2018-01-29T06:40:41.231Z,99041.53
2018-01-29T06:43:09.561Z,99033.91
2018-01-29T06:45:37.873Z,99027.56
2018-01-29T06:48:06.178Z,99034.65
2018-01-29T06:50:34.508Z,99035.02
2018-01-29T06:53:03.402Z,99019.55
2018-01-29T06:55:31.754Z,99025.37
2018-01-29T06:58:00.066Z,99037.42
2018-01-29T07:00:28.409Z,99026.66
2018-01-29T07:02:56.726Z,99020.63
2018-01-29T07:05:25.072Z,99024.57
2018-01-29T07:07:53.409Z,99014.00
2018-01-29T07:10:22.492Z,99021.64
2018-01-29T07:12:50.823Z,99013.44
2018-01-29T07:15:19.281Z,99016.52
2018-01-29T07:17:48.987Z,99025.58
2018-01-29T07:20:18.321Z,99040.25
2018-01-29T07:22:47.842Z,99036.73
2018-01-29T07:25:16.357Z,99033.01
2018-01-29T07:27:44.692Z,99040.89
2018-01-29T07:30:14.562Z,99046.38
2018-01-29T07:32:42.874Z,99039.51
2018-01-29T07:35:11.202Z,99052.83
2018-01-29T07:37:39.572Z,99049.16
2018-01-29T07:40:08.374Z,99035.23
2018-01-29T07:42:36.752Z,99042.43
2018-01-29T07:45:05.099Z,99047.07
2018-01-29T07:47:33.426Z,99039.86
2018-01-29T07:50:01.751Z,99016.46
2018-01-29T07:52:30.076Z,99023.99
2018-01-29T07:54:58.397Z,99019.45
2018-01-29T07:57:27.468Z,99033.10
2018-01-29T07:59:55.793Z,99030.39
2018-01-29T08:02:24.128Z,99029.70
2018-01-29T08:04:52.469Z,99032.09
2018-01-29T08:07:20.796Z,99023.25
2018-01-29T08:09:50.009Z,99033.64
2018-01-29T08:12:19.327Z,99043.55
2018-01-29T08:14:47.642Z,99033.48
2018-01-29T08:17:15.962Z,99035.40
2018-01-29T08:19:45.210Z,99032.67
2018-01-29T08:22:15.265Z,99028.56
2018-01-29T08:24:43.590Z,99034.20
2018-01-29T08:27:11.903Z,99039.02
2018-01-29T08:29:40.212Z,99045.77
2018-01-29T08:32:08.516Z,99033.73
2018-01-29T08:34:36.828Z,99027.06
2018-01-29T08:37:05.154Z,99020.08
2018-01-29T08:39:33.473Z,99033.27
2018-01-29T08:42:01.778Z,99025.63
2018-01-29T08:44:30.110Z,99040.66
2018-01-29T08:46:58.440Z,99035.06
2018-01-29T08:49:26.767Z,99028.28
2018-01-29T08:51:55.097Z,99030.27
2018-01-29T08:54:24.197Z,99024.25
2018-01-29T08:56:52.535Z,99030.64
2018-01-29T08:59:21.146Z,99033.73
2018-01-29T09:01:51.384Z,99033.67
2018-01-29T09:04:20.515Z,99023.98
2018-01-29T09:06:48.837Z,99026.81
2018-01-29T09:09:17.813Z,99031.36
2018-01-29T09:11:46.144Z,99021.22
2018-01-29T09:14:14.484Z,99012.35
2018-01-29T09:16:44.499Z,99011.07
2018-01-29T09:19:12.852Z,99015.47
2018-01-29T09:21:41.198Z,99010.20
2018-01-29T09:24:09.540Z,99008.59
2018-01-29T09:26:38.648Z,98999.16
2018-01-29T09:29:06.974Z,98997.06
2018-01-29T09:31:35.321Z,99000.99
2018-01-29T09:34:03.756Z,98994.46
2018-01-29T09:36:32.102Z,99006.23
2018-01-29T09:39:00.476Z,98992.48
2018-01-29T09:41:28.802Z,98995.70
2018-01-29T09:43:57.887Z,98995.05
2018-01-29T09:46:26.221Z,98994.95
2018-01-29T09:48:54.538Z,98988.06
2018-01-29T09:51:22.892Z,99005.43
2018-01-29T09:53:52.159Z,98998.64
2018-01-29T09:56:21.383Z,99010.59
2018-01-29T09:58:49.716Z,99019.51
2018-01-29T10:01:18.051Z,99021.09
2018-01-29T10:03:46.409Z,99016.14
2018-01-29T10:06:14.711Z,99013.96
2018-01-29T10:08:43.045Z,99007.09
2018-01-29T10:11:11.372Z,99001.76
2018-01-29T10:13:39.704Z,98996.25
2018-01-29T10:16:08.023Z,98999.75
2018-01-29T10:18:36.362Z,98990.78
2018-01-29T10:21:04.697Z,98990.86
2018-01-29T10:23:33.778Z,98991.52
2018-01-29T10:26:02.104Z,98978.67
2018-01-29T10:28:30.420Z,98977.34
2018-01-29T10:30:58.768Z,98975.77
2018-01-29T10:33:27.116Z,98973.51
2018-01-29T10:35:55.451Z,98947.16
2018-01-29T10:38:23.797Z,98959.07
2018-01-29T10:40:52.123Z,98948.28
2018-01-29T10:43:20.460Z,98941.92
2018-01-29T10:45:48.784Z,98933.37
2018-01-29T10:48:17.108Z,98947.59
2018-01-29T10:50:45.479Z,98938.38
2018-01-29T10:53:13.872Z,98934.97
2018-01-29T10:55:42.190Z,98933.47
2018-01-29T10:58:10.517Z,98930.09
2018-01-29T11:00:44.778Z,98930.91
2018-01-29T11:03:13.116Z,98940.48
2018-01-29T11:05:41.452Z,98919.45
2018-01-29T11:08:09.786Z,98920.66
2018-01-29T11:10:38.128Z,98904.16
2018-01-29T11:13:06.450Z,98907.77
2018-01-29T11:15:34.795Z,98921.05
2018-01-29T11:18:03.136Z,98910.02
2018-01-29T11:20:31.478Z,98894.94
2018-01-29T11:22:59.818Z,98903.47
2018-01-29T11:25:28.143Z,98889.92
2018-01-29T11:27:56.487Z,98894.19
2018-01-29T11:30:24.830Z,98893.38
2018-01-29T11:32:53.926Z,98881.23
2018-01-29T11:35:22.886Z,98882.09
2018-01-29T11:37:51.215Z,98861.14
2018-01-29T11:40:19.534Z,98873.05
2018-01-29T11:42:47.850Z,98875.16
2018-01-29T11:45:16.198Z,98861.69
2018-01-29T11:47:44.543Z,98865.33
2018-01-29T11:50:13.185Z,98858.43
2018-01-29T11:52:41.502Z,98856.77
2018-01-29T11:55:09.835Z,98843.61
2018-01-29T11:57:39.966Z,98838.88
2018-01-29T12:00:09.062Z,98839.05
2018-01-29T12:02:38.151Z,98840.66
2018-01-29T12:05:06.492Z,98842.83
2018-01-29T12:07:36.076Z,98816.44
2018-01-29T12:10:04.412Z,98812.59
2018-01-29T12:12:33.535Z,98811.74
2018-01-29T12:15:01.879Z,98824.19
2018-01-29T12:17:30.234Z,98813.66
2018-01-29T12:19:58.566Z,98813.21
2018-01-29T12:22:26.904Z,98808.52
2018-01-29T12:24:55.256Z,98817.84
2018-01-29T12:27:23.583Z,98812.20
2018-01-29T12:29:51.937Z,98798.97
2018-01-29T12:32:20.266Z,98790.73
2018-01-29T12:34:49.862Z,98796.73
2018-01-29T12:37:18.198Z,98786.56
2018-01-29T12:39:46.541Z,98782.69
2018-01-29T12:42:14.885Z,98783.60
2018-01-29T12:44:43.263Z,98776.28
2018-01-29T12:47:12.360Z,98778.75
2018-01-29T12:49:40.683Z,98760.77
2018-01-29T12:52:09.005Z,98785.61
2018-01-29T12:54:38.108Z,98761.13
2018-01-29T12:57:06.431Z,98762.17
2018-01-29T12:59:34.755Z,98766.34
2018-01-29T13:02:03.848Z,98751.84
2018-01-29T13:04:32.201Z,98757.48
2018-01-29T13:07:00.540Z,98747.94
2018-01-29T13:09:28.872Z,98756.13
2018-01-29T13:11:57.193Z,98742.48
2018-01-29T13:14:25.541Z,98774.97
2018-01-29T13:16:53.872Z,98774.73
2018-01-29T13:19:22.226Z,98737.23
2018-01-29T13:21:50.564Z,98738.61
2018-01-29T13:24:18.894Z,98727.23
2018-01-29T13:26:47.219Z,98733.66
2018-01-29T13:29:16.318Z,98719.89
2018-01-29T13:31:44.638Z,98721.52
2018-01-29T13:34:12.966Z,98717.73
2018-01-29T13:36:42.278Z,98732.41
2018-01-29T13:39:11.393Z,98720.86
2018-01-29T13:41:39.737Z,98713.83
2018-01-29T13:44:08.235Z,98715.63
2018-01-29T13:46:36.565Z,98723.77
2018-01-29T13:49:04.900Z,98732.51
2018-01-29T13:51:33.233Z,98719.83
2018-01-29T13:54:02.511Z,98712.64
2018-01-29T13:56:30.844Z,98713.01
2018-01-29T13:58:59.971Z,98714.77
2018-01-29T14:01:28.316Z,98699.48
2018-01-29T14:03:56.641Z,98698.61
2018-01-29T14:06:24.971Z,98699.47
2018-01-29T14:08:54.067Z,98695.25
2018-01-29T14:11:22.412Z,98713.80
2018-01-29T14:13:50.721Z,98695.52
2018-01-29T14:16:19.814Z,98699.87
2018-01-29T14:18:48.152Z,98684.08
2018-01-29T14:21:16.471Z,98680.16
2018-01-29T14:23:45.594Z,98684.98
2018-01-29T14:26:13.928Z,98681.97
2018-01-29T14:28:42.247Z,98687.56
2018-01-29T14:31:10.591Z,98679.44
2018-01-29T14:33:39.668Z,98680.66
2018-01-29T14:36:08.002Z,98678.10
2018-01-29T14:38:36.326Z,98672.02
2018-01-29T14:41:04.677Z,98666.87
2018-01-29T14:43:32.985Z,98662.69
2018-01-29T14:46:01.879Z,98663.52
2018-01-29T14:48:30.215Z,98658.82
2018-01-29T14:50:58.530Z,98666.55
2018-01-29T14:53:26.851Z,98650.21
2018-01-29T14:55:55.196Z,98647.42
2018-01-29T14:58:23.540Z,98652.56
2018-01-29T15:00:51.896Z,98650.02
2018-01-29T15:03:20.240Z,98647.39
2018-01-29T15:05:48.572Z,98642.23
2018-01-29T15:08:16.926Z,98619.30
2018-01-29T15:10:45.270Z,98612.15
2018-01-29T15:13:14.373Z,98615.45
2018-01-29T15:15:42.706Z,98616.70
2018-01-29T15:18:11.054Z,98609.91
2018-01-29T15:20:39.393Z,98614.96
2018-01-29T15:23:08.502Z,98598.80
2018-01-29T15:25:37.608Z,98612.46
2018-01-29T15:28:05.940Z,98605.94
2018-01-29T15:30:34.270Z,98600.34
2018-01-29T15:33:02.586Z,98600.75
2018-01-29T15:35:30.928Z,98604.03
2018-01-29T15:37:59.246Z,98590.48
2018-01-29T15:40:27.589Z,98593.52
2018-01-29T15:42:55.934Z,98570.50
2018-01-29T15:45:25.374Z,98575.70
2018-01-29T15:47:53.719Z,98588.10
2018-01-29T15:50:22.881Z,98573.14
2018-01-29T15:52:51.180Z,98572.67
2018-01-29T15:55:19.517Z,98591.30
2018-01-29T15:57:47.856Z,98576.00
2018-01-29T16:00:16.213Z,98590.98
2018-01-29T16:02:45.306Z,98595.25
2018-01-29T16:05:13.640Z,98589.38
2018-01-29T16:07:41.958Z,98593.23
2018-01-29T16:10:11.055Z,98609.80
2018-01-29T16:12:40.516Z,98593.60
2018-01-29T16:15:08.860Z,98597.77
2018-01-29T16:17:37.187Z,98585.82
2018-01-29T16:20:05.514Z,98590.81
2018-01-29T16:22:33.830Z,98570.09
2018-01-29T16:25:02.918Z,98570.08
2018-01-29T16:27:31.220Z,98581.98
2018-01-29T16:29:59.536Z,98569.58
2018-01-29T16:32:29.335Z,98572.55
2018-01-29T16:34:57.654Z,98570.84
2018-01-29T16:37:25.970Z,98559.84
2018-01-29T16:39:54.313Z,98551.73
2018-01-29T16:42:22.650Z,98547.50
2018-01-29T16:44:51.752Z,98549.66
2018-01-29T16:47:20.091Z,98542.34
2018-01-29T16:49:48.427Z,98541.84
2018-01-29T16:52:16.756Z,98549.09
2018-01-29T16:54:45.130Z,98539.30
2018-01-29T16:57:13.507Z,98541.48
2018-01-29T16:59:41.876Z,98539.27
2018-01-29T17:02:10.197Z,98533.66
2018-01-29T17:04:38.510Z,98518.40
2018-01-29T17:07:06.817Z,98509.80
2018-01-29T17:09:35.158Z,98509.39
2018-01-29T17:12:03.487Z,98522.56
2018-01-29T17:14:31.838Z,98535.44
2018-01-29T17:17:00.196Z,98536.61
2018-01-29T17:19:28.544Z,98537.78
2018-01-29T17:21:56.877Z,98533.59
2018-01-29T17:24:25.220Z,98527.98
2018-01-29T17:26:53.597Z,98542.52
2018-01-29T17:29:21.949Z,98540.84
2018-01-29T17:31:50.303Z,98543.22
2018-01-29T17:34:19.420Z,98534.32
2018-01-29T17:36:47.755Z,98549.50
2018-01-29T17:39:16.099Z,98542.31
2018-01-29T17:41:44.450Z,98538.78
2018-01-29T17:44:12.767Z,98533.23
2018-01-29T17:46:42.309Z,98535.67
2018-01-29T17:49:10.954Z,98531.87
2018-01-29T17:51:39.614Z,98529.31
2018-01-29T17:54:08.015Z,98525.24
2018-01-29T17:56:36.939Z,98528.11
2018-01-29T17:59:05.925Z,98529.03
2018-01-29T18:01:35.206Z,98522.66
2018-01-29T18:04:04.354Z,98520.13
2018-01-29T18:06:32.941Z,98520.95
2018-01-29T18:09:03.116Z,98520.48
2018-01-29T18:11:31.783Z,98525.70
2018-01-29T18:14:00.948Z,98520.59
2018-01-29T18:16:30.487Z,98526.87
2018-01-29T18:19:01.009Z,98524.70
2018-01-29T18:21:31.516Z,98518.78
2018-01-29T18:24:01.306Z,98527.95
2018-01-29T18:26:30.959Z,98523.85
2018-01-29T18:29:00.899Z,98523.39
2018-01-29T18:31:30.911Z,98529.50
2018-01-29T18:34:00.711Z,98533.30
2018-01-29T18:36:29.977Z,98532.59
2018-01-29T18:38:59.845Z,98531.23
2018-01-29T18:41:29.744Z,98535.31
2018-01-29T18:43:59.619Z,98535.56
2018-01-29T18:46:29.437Z,98524.42
2018-01-29T18:48:59.279Z,98529.46
2018-01-29T18:51:29.069Z,98520.20
2018-01-29T18:53:58.918Z,98525.20
2018-01-29T18:56:28.741Z,98526.38
2018-01-29T18:58:58.516Z,98533.22
2018-01-29T19:01:29.432Z,98535.81
2018-01-29T19:03:59.470Z,98541.77
2018-01-29T19:06:30.137Z,98542.63
2018-01-29T19:09:00.172Z,98531.98
2018-01-29T19:11:30.100Z,98536.34
2018-01-29T19:14:00.927Z,98535.57
2018-01-29T19:16:30.847Z,98535.95
2018-01-29T19:19:00.664Z,98543.20
2018-01-29T19:21:30.680Z,98550.05
2018-01-29T19:24:00.803Z,98543.20
2018-01-29T19:26:30.788Z,98555.05
2018-01-29T19:29:00.680Z,98555.13
2018-01-29T19:31:30.501Z,98555.94
2018-01-29T19:34:00.331Z,98546.53
2018-01-29T19:36:30.210Z,98544.33
2018-01-29T19:39:00.532Z,98546.14
2018-01-29T19:41:30.369Z,98550.79
2018-01-29T19:44:00.299Z,98541.42
2018-01-29T19:46:30.207Z,98546.53
2018-01-29T19:49:01.268Z,98550.36
2018-01-29T19:51:31.445Z,98551.45
2018-01-29T19:54:02.208Z,98543.09
2018-01-29T19:56:33.117Z,98545.99
2018-01-29T19:59:03.082Z,98549.62
2018-01-29T20:01:33.149Z,98553.48
2018-01-29T20:04:03.039Z,98552.06
2018-01-29T20:06:33.634Z,98564.95
2018-01-29T20:09:04.038Z,98568.82
2018-01-29T20:11:33.912Z,98566.20
2018-01-29T20:14:05.403Z,98573.16
2018-01-29T20:16:36.299Z,98574.96
2018-01-29T20:19:07.282Z,98577.02
2018-01-29T20:21:37.154Z,98585.12
2018-01-29T20:24:07.690Z,98577.84
2018-01-29T20:26:37.580Z,98586.47
2018-01-29T20:29:08.291Z,98595.58
2018-01-29T20:31:38.304Z,98604.00
2018-01-29T20:34:08.161Z,98618.92
2018-01-29T20:36:39.492Z,98641.61
2018-01-29T20:39:10.199Z,98665.75
2018-01-29T20:41:40.980Z,98687.91
2018-01-29T20:44:10.908Z,98688.00
2018-01-29T20:46:40.853Z,98696.28
2018-01-29T20:49:10.970Z,98693.40
2018-01-29T20:51:40.856Z,98714.89
2018-01-29T20:54:10.773Z,98719.23
2018-01-29T20:56:41.838Z,98732.12
2018-01-29T20:59:11.737Z,98723.80
2018-01-29T21:01:41.643Z,98723.75
2018-01-29T21:04:12.410Z,98727.01
2018-01-29T21:06:43.484Z,98734.52
2018-01-29T21:09:14.109Z,98733.14
2018-01-29T21:11:44.032Z,98731.30
2018-01-29T21:14:13.894Z,98737.68
2018-01-29T21:16:44.304Z,98754.23
2018-01-29T21:19:14.196Z,98747.02
2018-01-29T21:21:44.444Z,98760.91
2018-01-29T21:24:14.261Z,98762.59
2018-01-29T21:26:44.622Z,98769.41
2018-01-29T21:29:14.442Z,98786.25
2018-01-29T21:31:44.259Z,98776.53
2018-01-29T21:34:14.079Z,98772.38
2018-01-29T21:36:44.730Z,98784.89
2018-01-29T21:39:14.568Z,98792.34
2018-01-29T21:41:44.508Z,98794.33
2018-01-29T21:44:15.358Z,98800.14
2018-01-29T21:46:45.728Z,98784.10
2018-01-29T21:49:15.710Z,98797.34
2018-01-29T21:51:45.539Z,98800.77
2018-01-29T21:54:16.061Z,98802.31
2018-01-29T21:56:46.609Z,98810.64
2018-01-29T21:59:17.367Z,98828.84
2018-01-29T22:01:47.701Z,98831.17
2018-01-29T22:04:17.123Z,98855.30
2018-01-29T22:06:46.603Z,98859.17
2018-01-29T22:09:16.303Z,98860.66
2018-01-29T22:11:44.763Z,98873.11
2018-01-29T22:14:13.088Z,98879.20
2018-01-29T22:16:41.428Z,98884.20
2018-01-29T22:19:09.751Z,98884.39
2018-01-29T22:21:38.128Z,98887.11
2018-01-29T22:24:06.459Z,98896.66
2018-01-29T22:26:35.007Z,98896.02
2018-01-29T22:29:03.347Z,98895.86
2018-01-29T22:31:31.729Z,98908.34
2018-01-29T22:34:00.003Z,98910.11
2018-01-29T22:36:28.322Z,98902.39
2018-01-29T22:38:56.633Z,98914.62
2018-01-29T22:41:24.954Z,98911.14
2018-01-29T22:43:53.258Z,98922.73
2018-01-29T22:46:22.368Z,98925.36
2018-01-29T22:48:50.679Z,98940.58
2018-01-29T22:51:18.994Z,98937.52
2018-01-29T22:53:47.314Z,98951.55
2018-01-29T22:56:15.635Z,98943.71
2018-01-29T22:58:43.970Z,98942.53
2018-01-29T23:01:12.296Z,98940.85
2018-01-29T23:03:40.638Z,98935.90
2018-01-29T23:06:08.973Z,98964.67
2018-01-29T23:08:38.100Z,98957.13
2018-01-29T23:11:06.447Z,98968.27
2018-01-29T23:13:34.786Z,98976.44
2018-01-29T23:16:03.113Z,98970.14
2018-01-29T23:18:31.445Z,98978.25
2018-01-29T23:20:59.776Z,98999.05
2018-01-29T23:23:28.094Z,98986.36
2018-01-29T23:25:56.436Z,98990.52
2018-01-29T23:28:24.765Z,99003.88
2018-01-29T23:30:53.089Z,98998.29
2018-01-29T23:33:21.398Z,98999.24
2018-01-29T23:35:49.718Z,99006.86
2018-01-29T23:38:18.053Z,99001.45
2018-01-29T23:40:46.370Z,99012.34
2018-01-29T23:43:14.680Z,99022.69
2018-01-29T23:45:43.011Z,99020.20
2018-01-29T23:48:11.336Z,99015.28
2018-01-29T23:50:39.646Z,99010.31
2018-01-29T23:53:07.971Z,99030.05
2018-01-29T23:55:37.186Z,99034.84
2018-01-29T23:58:05.516Z,99042.59
